createdAt,value
2017-04-28T00:00:07.586Z,7.49
2017-04-28T00:01:07.619Z,7.49
2017-04-28T00:02:07.653Z,7.4
2017-04-28T00:03:07.691Z,7.37
2017-04-28T00:04:08.022Z,7.4
2017-04-28T00:05:08.284Z,7.37
2017-04-28T00:06:07.791Z,7.38
2017-04-28T00:07:08.123Z,7.38
2017-04-28T00:08:08.466Z,7.38
2017-04-28T00:09:07.886Z,7.37
2017-04-28T00:10:07.927Z,7.35
2017-04-28T00:11:07.956Z,7.4
2017-04-28T00:12:07.988Z,7.4
2017-04-28T00:13:08.019Z,7.38
2017-04-28T00:14:08.681Z,7.4
2017-04-28T00:15:08.088Z,7.27
2017-04-28T00:16:08.432Z,7.26
2017-04-28T00:17:08.156Z,7.31
2017-04-28T00:18:08.507Z,7.29
2017-04-28T00:19:08.849Z,7.31
2017-04-28T00:20:08.562Z,7.32
2017-04-28T00:21:08.601Z,7.24
2017-04-28T00:22:08.639Z,7.27
2017-04-28T00:23:08.664Z,7.32
2017-04-28T00:24:08.696Z,7.29
2017-04-28T00:25:08.735Z,7.27
2017-04-28T00:26:08.462Z,7.27
2017-04-28T00:27:08.494Z,7.26
2017-04-28T00:28:08.530Z,7.26
2017-04-28T00:29:09.185Z,7.22
2017-04-28T00:30:08.591Z,7.24
2017-04-28T00:31:09.243Z,7.24
2017-04-28T00:32:08.666Z,7.2
2017-04-28T00:33:09.313Z,7.15
2017-04-28T00:34:08.728Z,7.26
2017-04-28T00:35:08.765Z,7.24
2017-04-28T00:36:08.796Z,7.26
2017-04-28T00:37:09.145Z,7.27
2017-04-28T00:38:08.858Z,7.13
2017-04-28T00:39:09.225Z,7.12
2017-04-28T00:40:08.929Z,7.24
2017-04-28T00:41:09.271Z,7.07
2017-04-28T00:42:08.999Z,7.13
2017-04-28T00:43:09.654Z,7.22
2017-04-28T00:44:09.370Z,7.2
2017-04-28T00:45:09.098Z,7.12
2017-04-28T00:46:09.142Z,7.08
2017-04-28T00:47:09.474Z,7.23
2017-04-28T00:48:09.536Z,7.19
2017-04-28T00:49:09.550Z,7.27
2017-04-28T00:50:09.583Z,7.24
2017-04-28T00:51:09.306Z,7.22
2017-04-28T00:52:09.656Z,7.15
2017-04-28T00:53:09.992Z,7.16
2017-04-28T00:54:09.713Z,7.19
2017-04-28T00:55:09.752Z,7.15
2017-04-28T00:56:09.487Z,7.16
2017-04-28T00:57:09.811Z,7.24
2017-04-28T00:58:09.854Z,7.13
2017-04-28T00:59:09.573Z,7.2
2017-04-28T01:00:09.603Z,7.08
2017-04-28T01:01:09.952Z,7.19
2017-04-28T01:02:10.011Z,7.17
2017-04-28T01:03:09.712Z,7.13
2017-04-28T01:04:09.742Z,7.09
2017-04-28T01:05:09.775Z,7.16
2017-04-28T01:06:09.806Z,7.13
2017-04-28T01:07:09.861Z,7.16
2017-04-28T01:08:09.873Z,7.22
2017-04-28T01:09:09.911Z,7.12
2017-04-28T01:10:09.942Z,7.2
2017-04-28T01:11:09.979Z,7.22
2017-04-28T01:12:10.014Z,7.12
2017-04-28T01:13:10.353Z,7.24
2017-04-28T01:14:10.079Z,7.2
2017-04-28T01:15:10.422Z,7.22
2017-04-28T01:16:10.141Z,7.07
2017-04-28T01:17:10.495Z,7.16
2017-04-28T01:18:10.213Z,7.15
2017-04-28T01:19:10.558Z,7.16
2017-04-28T01:20:10.277Z,7.2
2017-04-28T01:21:10.311Z,7.23
2017-04-28T01:22:10.345Z,7.17
2017-04-28T01:23:10.374Z,7.09
2017-04-28T01:24:10.724Z,7.17
2017-04-28T01:25:10.445Z,7.2
2017-04-28T01:26:10.481Z,7.12
2017-04-28T01:27:10.512Z,7.08
2017-04-28T01:28:10.552Z,7.02
2017-04-28T01:29:10.580Z,7.08
2017-04-28T01:30:10.612Z,7.07
2017-04-28T01:31:10.648Z,7.13
2017-04-28T01:32:11.295Z,7.09
2017-04-28T01:33:10.714Z,7.08
2017-04-28T01:34:11.053Z,7.07
2017-04-28T01:35:10.782Z,7.02
2017-04-28T01:36:11.119Z,7.02
2017-04-28T01:37:10.849Z,7.04
2017-04-28T01:38:10.885Z,7.05
2017-04-28T01:39:10.914Z,7.02
2017-04-28T01:40:11.259Z,6.91
2017-04-28T01:41:11.293Z,7.02
2017-04-28T01:42:11.013Z,6.95
2017-04-28T01:43:11.350Z,6.94
2017-04-28T01:44:11.086Z,7.04
2017-04-28T01:45:11.425Z,7.01
2017-04-28T01:46:11.154Z,7.04
2017-04-28T01:47:11.181Z,6.91
2017-04-28T01:48:11.533Z,6.89
2017-04-28T01:49:11.246Z,7.02
2017-04-28T01:50:11.316Z,7.05
2017-04-28T01:51:11.622Z,6.86
2017-04-28T01:52:11.348Z,7.02
2017-04-28T01:53:11.381Z,7.01
2017-04-28T01:54:12.032Z,6.9
2017-04-28T01:55:11.760Z,6.91
2017-04-28T01:56:11.483Z,6.87
2017-04-28T01:57:11.512Z,6.89
2017-04-28T01:58:11.549Z,6.94
2017-04-28T01:59:12.200Z,6.89
2017-04-28T02:00:11.922Z,6.91
2017-04-28T02:01:11.647Z,6.89
2017-04-28T02:02:11.685Z,6.86
2017-04-28T02:03:11.715Z,6.94
2017-04-28T02:04:11.751Z,6.84
2017-04-28T02:05:11.779Z,6.86
2017-04-28T02:06:11.819Z,6.9
2017-04-28T02:07:11.848Z,6.86
2017-04-28T02:08:11.880Z,6.87
2017-04-28T02:09:11.914Z,6.86
2017-04-28T02:10:11.953Z,6.86
2017-04-28T02:11:11.983Z,6.84
2017-04-28T02:12:12.324Z,6.84
2017-04-28T02:13:12.363Z,6.86
2017-04-28T02:14:12.391Z,6.87
2017-04-28T02:15:12.117Z,6.79
2017-04-28T02:16:12.154Z,6.83
2017-04-28T02:17:12.489Z,6.8
2017-04-28T02:18:12.219Z,6.76
2017-04-28T02:19:12.249Z,6.72
2017-04-28T02:20:12.281Z,6.65
2017-04-28T02:21:12.314Z,6.63
2017-04-28T02:22:12.346Z,6.65
2017-04-28T02:23:12.693Z,6.65
2017-04-28T02:24:12.413Z,6.56
2017-04-28T02:25:12.758Z,6.69
2017-04-28T02:26:13.102Z,6.66
2017-04-28T02:27:13.129Z,6.63
2017-04-28T02:28:12.862Z,6.68
2017-04-28T02:29:12.890Z,6.54
2017-04-28T02:30:12.615Z,6.56
2017-04-28T02:31:12.958Z,6.53
2017-04-28T02:32:12.682Z,6.53
2017-04-28T02:33:12.715Z,6.53
2017-04-28T02:34:13.059Z,6.54
2017-04-28T02:35:12.781Z,6.5
2017-04-28T02:36:12.815Z,6.46
2017-04-28T02:37:13.158Z,6.41
2017-04-28T02:38:13.502Z,6.4
2017-04-28T02:39:13.224Z,6.4
2017-04-28T02:40:13.566Z,6.48
2017-04-28T02:41:12.980Z,6.41
2017-04-28T02:42:13.018Z,6.4
2017-04-28T02:43:13.666Z,6.41
2017-04-28T02:44:13.393Z,6.41
2017-04-28T02:45:13.424Z,6.36
2017-04-28T02:46:13.145Z,6.28
2017-04-28T02:47:13.490Z,6.35
2017-04-28T02:48:13.217Z,6.3
2017-04-28T02:49:13.555Z,6.3
2017-04-28T02:50:13.275Z,6.29
2017-04-28T02:51:13.312Z,6.26
2017-04-28T02:52:13.346Z,6.25
2017-04-28T02:53:13.383Z,6.25
2017-04-28T02:54:14.027Z,6.18
2017-04-28T02:55:13.754Z,6.22
2017-04-28T02:56:13.476Z,6.14
2017-04-28T02:57:13.553Z,6.25
2017-04-28T02:58:13.851Z,6.11
2017-04-28T02:59:13.886Z,6.14
2017-04-28T03:00:13.606Z,6.16
2017-04-28T03:01:13.643Z,6.14
2017-04-28T03:02:13.677Z,6.16
2017-04-28T03:03:13.707Z,6.18
2017-04-28T03:04:13.739Z,6.14
2017-04-28T03:05:13.771Z,6.16
2017-04-28T03:06:13.805Z,6.09
2017-04-28T03:07:14.153Z,6.11
2017-04-28T03:08:13.872Z,6.04
2017-04-28T03:09:14.218Z,6.09
2017-04-28T03:10:13.970Z,6.07
2017-04-28T03:11:14.279Z,6.07
2017-04-28T03:12:14.007Z,6.1
2017-04-28T03:13:14.346Z,6.06
2017-04-28T03:14:14.078Z,6.04
2017-04-28T03:15:14.719Z,6.04
2017-04-28T03:16:14.130Z,5.96
2017-04-28T03:17:14.477Z,5.89
2017-04-28T03:18:14.508Z,5.89
2017-04-28T03:19:14.544Z,5.89
2017-04-28T03:20:14.267Z,5.96
2017-04-28T03:21:14.299Z,5.89
2017-04-28T03:22:14.648Z,5.95
2017-04-28T03:23:14.780Z,5.89
2017-04-28T03:24:15.016Z,5.92
2017-04-28T03:25:14.431Z,5.82
2017-04-28T03:26:14.768Z,5.88
2017-04-28T03:27:14.804Z,5.86
2017-04-28T03:28:14.536Z,5.82
2017-04-28T03:29:14.871Z,5.77
2017-04-28T03:30:14.592Z,5.78
2017-04-28T03:31:14.629Z,5.74
2017-04-28T03:32:14.659Z,5.71
2017-04-28T03:33:14.699Z,5.71
2017-04-28T03:34:14.726Z,5.75
2017-04-28T03:35:14.757Z,5.74
2017-04-28T03:36:14.791Z,5.68
2017-04-28T03:37:15.130Z,5.75
2017-04-28T03:38:15.472Z,5.78
2017-04-28T03:39:14.886Z,5.66
2017-04-28T03:40:14.920Z,5.74
2017-04-28T03:41:15.259Z,5.64
2017-04-28T03:42:15.295Z,5.67
2017-04-28T03:43:15.024Z,5.77
2017-04-28T03:44:15.052Z,5.7
2017-04-28T03:45:15.391Z,5.68
2017-04-28T03:46:15.119Z,5.7
2017-04-28T03:47:15.148Z,5.78
2017-04-28T03:48:15.491Z,5.6
2017-04-28T03:49:15.831Z,5.67
2017-04-28T03:50:15.245Z,5.63
2017-04-28T03:51:15.278Z,5.66
2017-04-28T03:52:15.955Z,5.66
2017-04-28T03:53:15.964Z,5.64
2017-04-28T03:54:15.387Z,5.71
2017-04-28T03:55:15.411Z,5.6
2017-04-28T03:56:15.442Z,5.59
2017-04-28T03:57:15.475Z,5.64
2017-04-28T03:58:15.821Z,5.67
2017-04-28T03:59:15.849Z,5.68
2017-04-28T04:00:15.879Z,5.67
2017-04-28T04:01:15.607Z,5.67
2017-04-28T04:02:15.635Z,5.66
2017-04-28T04:03:15.978Z,5.63
2017-04-28T04:04:16.009Z,5.66
2017-04-28T04:05:15.735Z,5.68
2017-04-28T04:06:15.768Z,5.7
2017-04-28T04:07:15.802Z,5.63
2017-04-28T04:08:15.831Z,5.7
2017-04-28T04:09:16.178Z,5.63
2017-04-28T04:10:15.897Z,5.83
2017-04-28T04:11:15.932Z,5.68
2017-04-28T04:12:15.998Z,5.75
2017-04-28T04:13:16.311Z,5.73
2017-04-28T04:14:16.341Z,5.75
2017-04-28T04:15:16.376Z,5.73
2017-04-28T04:16:16.408Z,5.85
2017-04-28T04:17:16.134Z,5.83
2017-04-28T04:18:16.468Z,5.88
2017-04-28T04:19:16.501Z,5.82
2017-04-28T04:20:16.225Z,5.88
2017-04-28T04:21:16.257Z,5.92
2017-04-28T04:22:16.598Z,5.89
2017-04-28T04:23:16.631Z,5.89
2017-04-28T04:24:16.670Z,5.91
2017-04-28T04:25:16.722Z,5.96
2017-04-28T04:26:16.423Z,5.95
2017-04-28T04:27:16.766Z,6.04
2017-04-28T04:28:16.799Z,6.13
2017-04-28T04:29:16.829Z,6.19
2017-04-28T04:30:16.549Z,6.03
2017-04-28T04:31:16.591Z,6.16
2017-04-28T04:32:16.619Z,6.19
2017-04-28T04:33:17.275Z,6.29
2017-04-28T04:34:16.999Z,6.35
2017-04-28T04:35:17.026Z,6.41
2017-04-28T04:36:16.746Z,6.43
2017-04-28T04:37:16.779Z,6.51
2017-04-28T04:38:16.819Z,6.58
2017-04-28T04:39:17.154Z,6.71
2017-04-28T04:40:16.887Z,6.71
2017-04-28T04:41:17.393Z,6.87
2017-04-28T04:42:16.948Z,6.91
2017-04-28T04:43:17.290Z,6.9
2017-04-28T04:44:17.323Z,6.87
2017-04-28T04:45:17.047Z,6.94
2017-04-28T04:46:17.391Z,7.15
2017-04-28T04:47:17.115Z,7.13
2017-04-28T04:48:17.458Z,7.23
2017-04-28T04:49:17.492Z,7.23
2017-04-28T04:50:17.226Z,7.19
2017-04-28T04:51:17.252Z,7.32
2017-04-28T04:52:17.596Z,7.41
2017-04-28T04:53:17.318Z,7.45
2017-04-28T04:54:17.664Z,7.47
2017-04-28T04:55:17.700Z,7.52
2017-04-28T04:56:17.729Z,7.6
2017-04-28T04:57:17.454Z,7.74
2017-04-28T04:58:17.489Z,7.69
2017-04-28T04:59:17.533Z,7.71
2017-04-28T05:00:17.558Z,7.79
2017-04-28T05:01:17.592Z,7.72
2017-04-28T05:02:17.629Z,7.71
2017-04-28T05:03:17.665Z,7.67
2017-04-28T05:04:17.693Z,7.72
2017-04-28T05:05:17.729Z,7.74
2017-04-28T05:06:17.759Z,7.75
2017-04-28T05:07:18.106Z,7.78
2017-04-28T05:08:17.830Z,7.75
2017-04-28T05:09:18.174Z,7.75
2017-04-28T05:10:17.901Z,7.69
2017-04-28T05:11:17.935Z,7.69
2017-04-28T05:12:17.965Z,7.77
2017-04-28T05:13:18.004Z,7.77
2017-04-28T05:14:18.037Z,7.67
2017-04-28T05:15:18.071Z,7.62
2017-04-28T05:16:18.106Z,7.72
2017-04-28T05:17:18.768Z,7.74
2017-04-28T05:18:18.185Z,7.71
2017-04-28T05:19:18.517Z,7.82
2017-04-28T05:20:18.242Z,7.78
2017-04-28T05:21:18.583Z,7.77
2017-04-28T05:22:18.522Z,7.89
2017-04-28T05:23:18.959Z,7.87
2017-04-28T05:24:18.999Z,7.84
2017-04-28T05:25:18.412Z,7.87
2017-04-28T05:26:18.470Z,7.85
2017-04-28T05:27:18.483Z,7.94
2017-04-28T05:28:18.837Z,7.99
2017-04-28T05:29:18.860Z,7.96
2017-04-28T05:30:19.203Z,7.99
2017-04-28T05:31:18.617Z,8.04
2017-04-28T05:32:18.965Z,8.02
2017-04-28T05:33:19.001Z,8.1
2017-04-28T05:34:19.338Z,8
2017-04-28T05:35:19.066Z,8.07
2017-04-28T05:36:19.141Z,8.02
2017-04-28T05:37:18.833Z,8.1
2017-04-28T05:38:18.860Z,8.2
2017-04-28T05:39:19.515Z,8.2
2017-04-28T05:40:18.940Z,8.28
2017-04-28T05:41:19.272Z,8.14
2017-04-28T05:42:19.308Z,8.2
2017-04-28T05:43:19.343Z,8.33
2017-04-28T05:44:19.377Z,8.33
2017-04-28T05:45:19.727Z,8.32
2017-04-28T05:46:19.141Z,8.29
2017-04-28T05:47:19.786Z,8.32
2017-04-28T05:48:19.514Z,8.35
2017-04-28T05:49:19.242Z,8.33
2017-04-28T05:50:19.593Z,8.42
2017-04-28T05:51:19.311Z,8.37
2017-04-28T05:52:19.345Z,8.4
2017-04-28T05:53:19.689Z,8.39
2017-04-28T05:54:19.414Z,8.39
2017-04-28T05:55:19.487Z,8.44
2017-04-28T05:56:19.487Z,8.5
2017-04-28T05:57:19.520Z,8.53
2017-04-28T05:58:19.554Z,8.51
2017-04-28T05:59:19.591Z,8.6
2017-04-28T06:00:20.261Z,8.62
2017-04-28T06:01:19.658Z,8.58
2017-04-28T06:02:19.699Z,8.63
2017-04-28T06:03:20.036Z,8.66
2017-04-28T06:04:19.766Z,8.58
2017-04-28T06:05:19.805Z,8.75
2017-04-28T06:06:20.143Z,8.66
2017-04-28T06:07:19.869Z,8.81
2017-04-28T06:08:20.210Z,8.73
2017-04-28T06:09:20.250Z,8.76
2017-04-28T06:10:20.284Z,8.87
2017-04-28T06:11:20.008Z,8.87
2017-04-28T06:12:20.042Z,8.88
2017-04-28T06:13:20.385Z,8.87
2017-04-28T06:14:20.123Z,8.96
2017-04-28T06:15:20.150Z,8.94
2017-04-28T06:16:20.493Z,8.84
2017-04-28T06:17:20.532Z,8.91
2017-04-28T06:18:20.874Z,8.96
2017-04-28T06:19:20.635Z,8.97
2017-04-28T06:20:20.707Z,9.02
2017-04-28T06:21:20.489Z,9.01
2017-04-28T06:22:20.705Z,8.99
2017-04-28T06:23:21.052Z,9.12
2017-04-28T06:24:20.773Z,9.13
2017-04-28T06:25:20.807Z,9.2
2017-04-28T06:26:21.196Z,9.28
2017-04-28T06:27:20.764Z,9.39
2017-04-28T06:28:21.277Z,9.35
2017-04-28T06:29:20.640Z,9.34
2017-04-28T06:30:20.788Z,9.48
2017-04-28T06:31:20.711Z,9.52
2017-04-28T06:32:21.200Z,9.52
2017-04-28T06:33:21.089Z,9.49
2017-04-28T06:34:20.815Z,9.52
2017-04-28T06:35:20.853Z,9.58
2017-04-28T06:36:21.511Z,9.61
2017-04-28T06:37:20.959Z,9.61
2017-04-28T06:38:21.275Z,9.6
2017-04-28T06:39:20.995Z,9.63
2017-04-28T06:40:21.335Z,9.68
2017-04-28T06:41:21.371Z,9.71
2017-04-28T06:42:21.412Z,9.75
2017-04-28T06:43:21.753Z,9.75
2017-04-28T06:44:21.482Z,9.73
2017-04-28T06:45:21.208Z,9.73
2017-04-28T06:46:21.246Z,9.71
2017-04-28T06:47:21.642Z,9.75
2017-04-28T06:48:21.621Z,9.7
2017-04-28T06:49:21.663Z,9.68
2017-04-28T06:50:21.385Z,9.7
2017-04-28T06:51:21.758Z,9.75
2017-04-28T06:52:21.759Z,9.71
2017-04-28T06:53:22.111Z,9.75
2017-04-28T06:54:22.139Z,9.71
2017-04-28T06:55:22.182Z,9.73
2017-04-28T06:56:21.599Z,9.73
2017-04-28T06:57:21.634Z,9.75
2017-04-28T06:58:21.983Z,9.75
2017-04-28T06:59:22.334Z,9.75
2017-04-28T07:00:22.054Z,9.73
2017-04-28T07:01:21.773Z,9.76
2017-04-28T07:02:22.124Z,9.89
2017-04-28T07:03:21.846Z,9.91
2017-04-28T07:04:22.519Z,9.85
2017-04-28T07:05:21.918Z,9.82
2017-04-28T07:06:21.954Z,9.97
2017-04-28T07:07:21.988Z,9.94
2017-04-28T07:08:22.023Z,9.96
2017-04-28T07:09:22.369Z,9.96
2017-04-28T07:10:22.093Z,9.96
2017-04-28T07:11:22.141Z,9.94
2017-04-28T07:12:22.173Z,9.93
2017-04-28T07:13:22.522Z,9.83
2017-04-28T07:14:22.545Z,9.83
2017-04-28T07:15:22.324Z,9.78
2017-04-28T07:16:22.309Z,9.83
2017-04-28T07:17:22.348Z,10
2017-04-28T07:18:22.638Z,9.99
2017-04-28T07:19:22.725Z,9.88
2017-04-28T07:20:22.457Z,9.99
2017-04-28T07:21:22.505Z,9.91
2017-04-28T07:22:22.997Z,10.04
2017-04-28T07:23:22.637Z,10.15
2017-04-28T07:24:22.905Z,10.12
2017-04-28T07:25:22.943Z,10.03
2017-04-28T07:26:23.284Z,10.03
2017-04-28T07:27:23.015Z,10.03
2017-04-28T07:28:23.048Z,10.03
2017-04-28T07:29:22.777Z,10.03
2017-04-28T07:30:22.814Z,10.06
2017-04-28T07:31:22.846Z,10.04
2017-04-28T07:32:22.881Z,10.04
2017-04-28T07:33:23.898Z,10.07
2017-04-28T07:34:23.262Z,10.04
2017-04-28T07:35:22.990Z,10.09
2017-04-28T07:36:23.335Z,10.17
2017-04-28T07:37:23.063Z,10.15
2017-04-28T07:38:23.099Z,10.15
2017-04-28T07:39:23.754Z,10.18
2017-04-28T07:40:23.481Z,10.12
2017-04-28T07:41:23.517Z,10.15
2017-04-28T07:42:23.667Z,10.18
2017-04-28T07:43:23.898Z,10.26
2017-04-28T07:44:23.622Z,10.15
2017-04-28T07:45:23.654Z,10.15
2017-04-28T07:46:23.387Z,10.32
2017-04-28T07:47:23.732Z,10.24
2017-04-28T07:48:23.766Z,10.25
2017-04-28T07:49:23.504Z,10.33
2017-04-28T07:50:23.536Z,10.26
2017-04-28T07:51:23.873Z,10.32
2017-04-28T07:52:23.616Z,10.37
2017-04-28T07:53:23.636Z,10.33
2017-04-28T07:54:23.676Z,10.52
2017-04-28T07:55:23.715Z,10.47
2017-04-28T07:56:23.898Z,10.47
2017-04-28T07:57:23.803Z,10.46
2017-04-28T07:58:24.124Z,10.55
2017-04-28T07:59:23.857Z,10.58
2017-04-28T08:00:23.895Z,10.6
2017-04-28T08:01:23.927Z,10.63
2017-04-28T08:02:23.963Z,10.68
2017-04-28T08:03:24.318Z,10.65
2017-04-28T08:04:24.040Z,10.78
2017-04-28T08:05:24.076Z,10.65
2017-04-28T08:06:24.112Z,10.74
2017-04-28T08:07:24.159Z,10.77
2017-04-28T08:08:24.397Z,10.83
2017-04-28T08:09:24.223Z,10.91
2017-04-28T08:10:24.568Z,10.86
2017-04-28T08:11:24.604Z,10.95
2017-04-28T08:12:24.334Z,10.98
2017-04-28T08:13:24.371Z,11.01
2017-04-28T08:14:25.020Z,10.99
2017-04-28T08:15:24.745Z,11.01
2017-04-28T08:16:24.475Z,11.17
2017-04-28T08:17:25.083Z,11.11
2017-04-28T08:18:24.571Z,11.19
2017-04-28T08:19:24.586Z,11.34
2017-04-28T08:20:24.618Z,11.25
2017-04-28T08:21:24.966Z,11.25
2017-04-28T08:22:24.694Z,11.32
2017-04-28T08:23:24.737Z,11.27
2017-04-28T08:24:24.767Z,11.35
2017-04-28T08:25:24.806Z,11.35
2017-04-28T08:26:25.151Z,11.39
2017-04-28T08:27:24.882Z,11.46
2017-04-28T08:28:25.290Z,11.46
2017-04-28T08:29:24.951Z,11.52
2017-04-28T08:30:25.002Z,11.54
2017-04-28T08:31:25.028Z,11.54
2017-04-28T08:32:25.064Z,11.61
2017-04-28T08:33:25.492Z,11.71
2017-04-28T08:34:25.133Z,11.67
2017-04-28T08:35:25.481Z,11.67
2017-04-28T08:36:25.514Z,11.74
2017-04-28T08:37:25.250Z,11.71
2017-04-28T08:38:25.281Z,11.68
2017-04-28T08:39:25.321Z,11.7
2017-04-28T08:40:25.973Z,11.85
2017-04-28T08:41:25.701Z,11.82
2017-04-28T08:42:25.737Z,11.85
2017-04-28T08:43:25.779Z,11.8
2017-04-28T08:44:26.124Z,11.8
2017-04-28T08:45:25.540Z,11.83
2017-04-28T08:46:25.580Z,11.87
2017-04-28T08:47:25.924Z,11.77
2017-04-28T08:48:25.654Z,11.85
2017-04-28T08:49:25.715Z,11.86
2017-04-28T08:50:25.727Z,11.87
2017-04-28T08:51:25.766Z,11.83
2017-04-28T08:52:25.801Z,11.83
2017-04-28T08:53:26.448Z,11.83
2017-04-28T08:54:25.872Z,11.82
2017-04-28T08:55:25.910Z,11.83
2017-04-28T08:56:26.255Z,11.8
2017-04-28T08:57:25.984Z,11.86
2017-04-28T08:58:26.020Z,11.83
2017-04-28T08:59:26.072Z,11.86
2017-04-28T09:00:26.101Z,11.82
2017-04-28T09:01:26.135Z,11.9
2017-04-28T09:02:26.167Z,11.85
2017-04-28T09:03:26.583Z,11.86
2017-04-28T09:04:26.247Z,11.93
2017-04-28T09:05:26.589Z,12.08
2017-04-28T09:06:26.322Z,12.04
2017-04-28T09:07:26.356Z,11.99
2017-04-28T09:08:26.389Z,11.97
2017-04-28T09:09:26.425Z,12.05
2017-04-28T09:10:26.774Z,12.02
2017-04-28T09:11:27.118Z,12.05
2017-04-28T09:12:26.542Z,12.12
2017-04-28T09:13:26.884Z,12.09
2017-04-28T09:14:26.920Z,12.08
2017-04-28T09:15:26.957Z,12.12
2017-04-28T09:16:26.995Z,12.2
2017-04-28T09:17:27.094Z,12.08
2017-04-28T09:18:26.763Z,12.2
2017-04-28T09:19:26.800Z,12.2
2017-04-28T09:20:27.153Z,12.13
2017-04-28T09:21:27.180Z,12.2
2017-04-28T09:22:27.215Z,12.11
2017-04-28T09:23:27.297Z,12.09
2017-04-28T09:24:27.291Z,12.06
2017-04-28T09:25:27.357Z,12.05
2017-04-28T09:26:27.370Z,12.15
2017-04-28T09:27:27.403Z,12.08
2017-04-28T09:28:27.438Z,12.16
2017-04-28T09:29:27.786Z,12.19
2017-04-28T09:30:27.203Z,12.06
2017-04-28T09:31:27.243Z,12.08
2017-04-28T09:32:27.599Z,12.09
2017-04-28T09:33:27.317Z,12.11
2017-04-28T09:34:27.660Z,12.16
2017-04-28T09:35:27.404Z,12.09
2017-04-28T09:36:27.435Z,12.12
2017-04-28T09:37:27.486Z,12.15
2017-04-28T09:38:27.508Z,12.2
2017-04-28T09:39:27.849Z,12.12
2017-04-28T09:40:27.583Z,12.26
2017-04-28T09:41:27.645Z,12.23
2017-04-28T09:42:27.679Z,12.23
2017-04-28T09:43:28.309Z,12.3
2017-04-28T09:44:27.728Z,12.41
2017-04-28T09:45:27.771Z,12.45
2017-04-28T09:46:28.422Z,12.49
2017-04-28T09:47:27.841Z,12.51
2017-04-28T09:48:27.877Z,12.62
2017-04-28T09:49:28.225Z,12.63
2017-04-28T09:50:28.260Z,12.75
2017-04-28T09:51:28.306Z,12.79
2017-04-28T09:52:28.027Z,12.88
2017-04-28T09:53:28.065Z,12.97
2017-04-28T09:54:28.413Z,13.06
2017-04-28T09:55:28.148Z,12.99
2017-04-28T09:56:28.488Z,13.3
2017-04-28T09:57:28.445Z,13.27
2017-04-28T09:58:28.871Z,13.47
2017-04-28T09:59:28.290Z,13.58
2017-04-28T10:00:28.646Z,13.79
2017-04-28T10:01:28.678Z,13.94
2017-04-28T10:02:29.118Z,14.09
2017-04-28T10:03:28.451Z,14.09
2017-04-28T10:04:28.486Z,14.19
2017-04-28T10:05:28.524Z,14.24
2017-04-28T10:06:29.185Z,14.31
2017-04-28T10:07:28.611Z,14.38
2017-04-28T10:08:28.696Z,14.39
2017-04-28T10:09:29.012Z,14.47
2017-04-28T10:10:29.334Z,14.67
2017-04-28T10:11:28.757Z,14.67
2017-04-28T10:12:28.796Z,14.81
2017-04-28T10:13:28.834Z,14.93
2017-04-28T10:14:28.878Z,14.94
2017-04-28T10:15:29.222Z,15.09
2017-04-28T10:16:28.955Z,15.21
2017-04-28T10:17:29.303Z,15.27
2017-04-28T10:18:29.342Z,15.45
2017-04-28T10:19:29.382Z,15.48
2017-04-28T10:20:29.435Z,15.79
2017-04-28T10:21:29.155Z,15.76
2017-04-28T10:22:29.812Z,15.97
2017-04-28T10:23:29.543Z,16.01
2017-04-28T10:24:29.276Z,16.09
2017-04-28T10:25:29.313Z,16.2
2017-04-28T10:26:29.359Z,16.3
2017-04-28T10:27:29.394Z,16.4
2017-04-28T10:28:29.746Z,16.56
2017-04-28T10:29:30.090Z,16.58
2017-04-28T10:30:29.516Z,16.71
2017-04-28T10:31:29.564Z,16.78
2017-04-28T10:32:29.598Z,17.03
2017-04-28T10:33:29.637Z,17.04
2017-04-28T10:34:29.992Z,17.13
2017-04-28T10:35:29.719Z,17.28
2017-04-28T10:36:30.071Z,17.3
2017-04-28T10:37:29.806Z,17.44
2017-04-28T10:38:30.469Z,17.57
2017-04-28T10:39:30.200Z,17.71
2017-04-28T10:40:30.240Z,17.76
2017-04-28T10:41:29.975Z,17.76
2017-04-28T10:42:30.331Z,17.71
2017-04-28T10:43:30.063Z,17.76
2017-04-28T10:44:30.418Z,17.84
2017-04-28T10:45:30.157Z,17.82
2017-04-28T10:46:30.192Z,17.89
2017-04-28T10:47:30.238Z,17.92
2017-04-28T10:48:30.586Z,18.03
2017-04-28T10:49:30.366Z,17.91
2017-04-28T10:50:30.677Z,18.04
2017-04-28T10:51:30.726Z,18.04
2017-04-28T10:52:30.458Z,17.95
2017-04-28T10:53:30.497Z,17.91
2017-04-28T10:54:30.548Z,17.95
2017-04-28T10:55:30.587Z,17.89
2017-04-28T10:56:30.638Z,17.81
2017-04-28T10:57:30.980Z,17.79
2017-04-28T10:58:31.023Z,17.67
2017-04-28T10:59:31.078Z,17.57
2017-04-28T11:00:30.801Z,17.4
2017-04-28T11:01:31.159Z,17.14
2017-04-28T11:02:31.504Z,17
2017-04-28T11:03:31.244Z,16.95
2017-04-28T11:04:30.974Z,16.74
2017-04-28T11:05:31.637Z,16.71
2017-04-28T11:06:31.058Z,16.68
2017-04-28T11:07:31.407Z,16.59
2017-04-28T11:08:31.142Z,16.53
2017-04-28T11:09:31.186Z,16.59
2017-04-28T11:10:31.225Z,16.59
2017-04-28T11:11:31.282Z,16.6
2017-04-28T11:12:31.616Z,16.56
2017-04-28T11:13:31.353Z,16.58
2017-04-28T11:14:32.010Z,16.74
2017-04-28T11:15:31.435Z,16.8
2017-04-28T11:16:31.479Z,16.93
2017-04-28T11:17:31.517Z,16.92
2017-04-28T11:18:31.573Z,17
2017-04-28T11:19:31.599Z,16.86
2017-04-28T11:20:31.977Z,16.85
2017-04-28T11:21:31.989Z,16.81
2017-04-28T11:22:31.720Z,16.88
2017-04-28T11:23:32.389Z,16.74
2017-04-28T11:24:32.112Z,16.77
2017-04-28T11:25:32.151Z,16.74
2017-04-28T11:26:31.884Z,16.56
2017-04-28T11:27:31.927Z,16.52
2017-04-28T11:28:31.971Z,16.65
2017-04-28T11:29:32.313Z,16.74
2017-04-28T11:30:32.054Z,16.7
2017-04-28T11:31:32.089Z,16.68
2017-04-28T11:32:32.442Z,16.71
2017-04-28T11:33:32.480Z,16.71
2017-04-28T11:34:32.519Z,16.78
2017-04-28T11:35:32.629Z,16.83
2017-04-28T11:36:32.598Z,16.85
2017-04-28T11:37:32.637Z,16.83
2017-04-28T11:38:32.376Z,16.83
2017-04-28T11:39:32.412Z,16.95
2017-04-28T11:40:32.759Z,16.85
2017-04-28T11:41:32.494Z,16.78
2017-04-28T11:42:32.534Z,16.73
2017-04-28T11:43:32.576Z,16.58
2017-04-28T11:44:32.613Z,16.6
2017-04-28T11:45:32.656Z,16.59
2017-04-28T11:46:33.004Z,16.59
2017-04-28T11:47:32.737Z,16.53
2017-04-28T11:48:33.081Z,16.53
2017-04-28T11:49:32.816Z,16.5
2017-04-28T11:50:32.853Z,16.5
2017-04-28T11:51:32.897Z,16.53
2017-04-28T11:52:33.243Z,16.56
2017-04-28T11:53:33.284Z,16.38
2017-04-28T11:54:33.018Z,16.33
2017-04-28T11:55:33.054Z,16.35
2017-04-28T11:56:33.099Z,16.33
2017-04-28T11:57:33.759Z,16.26
2017-04-28T11:58:33.796Z,16.25
2017-04-28T11:59:33.830Z,16.11
2017-04-28T12:00:33.648Z,16.04
2017-04-28T12:01:33.297Z,16.04
2017-04-28T12:02:33.643Z,16.06
2017-04-28T12:03:33.995Z,16.07
2017-04-28T12:04:33.725Z,16.12
2017-04-28T12:05:33.767Z,16.2
2017-04-28T12:06:33.507Z,16.2
2017-04-28T12:07:33.842Z,16.26
2017-04-28T12:08:33.883Z,16.33
2017-04-28T12:09:33.614Z,16.37
2017-04-28T12:10:33.659Z,16.48
2017-04-28T12:11:33.695Z,16.5
2017-04-28T12:12:34.045Z,16.5
2017-04-28T12:13:34.397Z,16.55
2017-04-28T12:14:34.154Z,16.55
2017-04-28T12:15:34.167Z,16.58
2017-04-28T12:16:33.895Z,16.63
2017-04-28T12:17:34.249Z,16.59
2017-04-28T12:18:34.593Z,16.49
2017-04-28T12:19:34.015Z,16.67
2017-04-28T12:20:34.054Z,16.68
2017-04-28T12:21:34.710Z,16.67
2017-04-28T12:22:34.145Z,16.59
2017-04-28T12:23:34.176Z,16.56
2017-04-28T12:24:34.215Z,16.49
2017-04-28T12:25:34.568Z,16.55
2017-04-28T12:26:34.291Z,16.59
2017-04-28T12:27:34.644Z,16.55
2017-04-28T12:28:34.689Z,16.55
2017-04-28T12:29:35.031Z,16.58
2017-04-28T12:30:34.765Z,16.59
2017-04-28T12:31:34.502Z,16.59
2017-04-28T12:32:34.878Z,16.67
2017-04-28T12:33:35.194Z,16.63
2017-04-28T12:34:34.926Z,16.71
2017-04-28T12:35:34.653Z,16.7
2017-04-28T12:36:35.005Z,16.67
2017-04-28T12:37:35.064Z,16.62
2017-04-28T12:38:35.080Z,16.58
2017-04-28T12:39:35.441Z,16.5
2017-04-28T12:40:34.857Z,16.42
2017-04-28T12:41:34.897Z,16.34
2017-04-28T12:42:35.244Z,16.31
2017-04-28T12:43:35.290Z,16.27
2017-04-28T12:44:35.012Z,16.16
2017-04-28T12:45:35.053Z,16.09
2017-04-28T12:46:35.123Z,16.14
2017-04-28T12:47:35.437Z,16.14
2017-04-28T12:48:35.482Z,16.09
2017-04-28T12:49:35.211Z,16.14
2017-04-28T12:50:35.254Z,16.03
2017-04-28T12:51:35.905Z,16.01
2017-04-28T12:52:35.947Z,16
2017-04-28T12:53:35.373Z,16.07
2017-04-28T12:54:35.418Z,16.16
2017-04-28T12:55:35.454Z,16.14
2017-04-28T12:56:35.796Z,16.2
2017-04-28T12:57:35.837Z,16.16
2017-04-28T12:58:35.876Z,16.26
2017-04-28T12:59:35.916Z,16.37
2017-04-28T13:00:35.981Z,16.41
2017-04-28T13:01:35.686Z,16.45
2017-04-28T13:02:36.032Z,16.58
2017-04-28T13:03:36.102Z,16.56
2017-04-28T13:04:35.808Z,16.71
2017-04-28T13:05:35.843Z,16.75
2017-04-28T13:06:36.196Z,16.73
2017-04-28T13:07:36.537Z,16.73
2017-04-28T13:08:35.971Z,16.68
2017-04-28T13:09:36.310Z,16.7